Time;durP1;ratioP1;P1;durP2;ratioP2;P2;SDS_P1;SDS_P2;PMS_P1;PMS_P2;Temp;Humidity;BMP_temperature;BMP_pressure;BME280_temperature;BME280_humidity;BME280_pressure;Samples;Min_cycle;Max_cycle;Signal;HPM_P1;HPM_P2
2023/03/02 00:01:00;;;;;;;19.55;11.82;;;;;;;16.22;46.42;102709.06;5022625;28;20049;-35
2023/03/02 00:03:27;;;;;;;19.00;11.05;;;;;;;16.21;45.52;102712.72;5021831;28;21009;-35
2023/03/02 00:05:55;;;;;;;20.60;12.30;;;;;;;16.19;45.50;102709.25;5021575;28;20049;-35
2023/03/02 00:08:22;;;;;;;19.27;11.32;;;;;;;16.18;45.63;102707.53;5024112;28;20076;-35
2023/03/02 00:10:48;;;;;;;19.98;12.02;;;;;;;16.17;46.61;102708.50;5020984;28;20806;-35
2023/03/02 00:13:15;;;;;;;20.73;12.13;;;;;;;16.17;46.48;102713.00;5021038;28;20054;-35
2023/03/02 00:15:42;;;;;;;19.58;12.20;;;;;;;16.15;46.53;102709.53;5023727;28;20052;-35
2023/03/02 00:18:08;;;;;;;17.88;11.32;;;;;;;16.13;45.80;102698.09;5021101;28;20049;-41
2023/03/02 00:20:35;;;;;;;17.95;11.38;;;;;;;16.12;46.77;102702.59;5023623;28;20053;-35
2023/03/02 00:23:01;;;;;;;18.90;11.15;;;;;;;16.11;46.45;102703.53;5020741;28;20396;-35
2023/03/02 00:25:28;;;;;;;18.67;11.00;;;;;;;16.09;46.50;102694.75;5024109;28;20529;-35
2023/03/02 00:27:55;;;;;;;19.38;11.00;;;;;;;16.08;46.36;102698.38;5021238;28;20054;-35
2023/03/02 00:30:21;;;;;;;17.77;11.07;;;;;;;16.07;45.80;102702.00;5022699;28;20046;-35
2023/03/02 00:32:48;;;;;;;19.45;11.63;;;;;;;16.06;45.95;102697.59;5025127;28;20046;-35
2023/03/02 00:35:15;;;;;;;18.58;11.35;;;;;;;16.04;46.31;102697.72;5019882;28;20057;-34
2023/03/02 00:37:42;;;;;;;18.38;10.57;;;;;;;16.04;46.71;102688.84;5020862;28;20393;-36
2023/03/02 00:40:09;;;;;;;17.70;10.70;;;;;;;16.03;46.58;102692.44;5024201;28;20053;-35
2023/03/02 00:42:36;;;;;;;17.60;11.18;;;;;;;16.02;46.09;102696.06;5019846;28;20065;-35
2023/03/02 00:45:04;;;;;;;18.75;11.02;;;;;;;16.00;45.94;102695.28;5019570;28;20133;-35
2023/03/02 00:47:35;;;;;;;15.80;10.32;;;;;;;15.98;46.89;102698.06;5021853;28;20080;-35
2023/03/02 00:50:02;;;;;;;17.85;10.75;;;;;;;15.98;46.05;102691.88;5023265;28;20450;-35
2023/03/02 00:52:30;;;;;;;17.55;10.98;;;;;;;15.97;46.29;102691.00;5023613;28;20041;-35
2023/03/02 00:54:56;;;;;;;17.38;10.60;;;;;;;15.97;46.91;102692.84;5021109;28;20053;-35
2023/03/02 00:57:23;;;;;;;18.35;11.45;;;;;;;15.95;46.90;102690.22;5022817;28;20053;-35
2023/03/02 00:59:50;;;;;;;17.67;10.25;;;;;;;15.93;46.11;102680.59;5025360;28;20050;-35
2023/03/02 01:02:16;;;;;;;14.98;9.70;;;;;;;15.93;47.19;102689.50;5021836;28;20053;-36
2023/03/02 01:04:43;;;;;;;16.00;10.32;;;;;;;15.92;46.74;102689.56;5024248;28;20076;-34
2023/03/02 01:07:14;;;;;;;15.65;10.38;;;;;;;15.91;46.93;102696.72;5025664;28;20053;-35
2023/03/02 01:09:42;;;;;;;16.80;11.15;;;;;;;15.90;46.13;102692.34;5023125;28;20520;-35
2023/03/02 01:12:10;;;;;;;15.73;10.35;;;;;;;15.89;46.14;102684.44;5023302;28;20049;-35
2023/03/02 01:14:39;;;;;;;15.30;9.80;;;;;;;15.88;46.36;102674.66;5026021;28;20352;-38
2023/03/02 01:17:06;;;;;;;17.67;9.80;;;;;;;15.88;47.33;102674.66;5031027;28;20045;-35
2023/03/02 01:19:33;;;;;;;15.10;9.57;;;;;;;15.87;46.85;102675.63;5024984;28;20041;-35
2023/03/02 01:22:00;;;;;;;16.10;10.32;;;;;;;15.86;47.41;102677.44;5027978;28;20053;-34
2023/03/02 01:24:26;;;;;;;16.15;10.35;;;;;;;15.85;46.90;102677.56;5025323;28;20069;-35
2023/03/02 01:26:53;;;;;;;15.73;9.93;;;;;;;15.84;46.33;102686.50;5025815;28;20068;-35
2023/03/02 01:29:20;;;;;;;16.45;10.05;;;;;;;15.84;46.44;102678.47;5024540;28;20429;-35
2023/03/02 01:31:46;;;;;;;15.60;9.60;;;;;;;15.84;46.86;102683.81;5025164;28;20057;-36
2023/03/02 01:34:13;;;;;;;15.35;9.65;;;;;;;15.83;47.21;102685.66;5025270;28;20408;-36
2023/03/02 01:36:40;;;;;;;15.85;9.65;;;;;;;15.82;46.38;102680.41;5025477;28;20058;-35
2023/03/02 01:39:06;;;;;;;15.02;9.00;;;;;;;15.82;47.05;102677.72;5026978;28;20057;-35
2023/03/02 01:41:32;;;;;;;16.23;10.32;;;;;;;15.82;47.14;102688.44;5027800;28;20052;-35
2023/03/02 01:43:59;;;;;;;16.27;9.52;;;;;;;15.81;47.54;102686.72;5023294;28;20045;-35
2023/03/02 01:46:31;;;;;;;13.82;9.48;;;;;;;15.79;47.47;102682.28;5026455;28;20076;-36
2023/03/02 01:49:05;;;;;;;14.18;9.05;;;;;;;15.79;46.68;102684.13;5027453;28;21573;-34
2023/03/02 01:51:39;;;;;;;15.20;9.65;;;;;;;15.81;47.23;102684.03;5023721;28;20058;-36
2023/03/02 01:54:16;;;;;;;15.00;9.43;;;;;;;15.79;46.54;102679.63;5024937;28;20642;-36
2023/03/02 01:56:44;;;;;;;15.13;9.57;;;;;;;15.79;46.58;102679.63;5024209;28;20150;-36
2023/03/02 01:59:19;;;;;;;16.08;9.95;;;;;;;15.78;46.70;102679.72;5026546;28;20048;-36
2023/03/02 02:01:50;;;;;;;14.30;9.15;;;;;;;15.77;46.89;102683.38;5024835;28;20057;-36
2023/03/02 02:04:18;;;;;;;15.77;9.32;;;;;;;15.77;47.52;102672.66;5024577;28;20062;-36
2023/03/02 02:06:54;;;;;;;17.35;10.50;;;;;;;15.75;46.88;102670.06;5023349;28;20376;-36
2023/03/02 02:09:24;;;;;;;14.30;8.63;;;;;;;15.75;47.68;102675.41;5023457;28;20053;-35
2023/03/02 02:11:51;;;;;;;16.08;9.98;;;;;;;15.74;47.86;102671.03;5022667;28;20049;-35
2023/03/02 02:14:17;;;;;;;14.15;8.88;;;;;;;15.74;47.16;102671.03;5021516;28;20041;-36
2023/03/02 02:16:44;;;;;;;15.15;9.38;;;;;;;15.74;47.42;102673.72;5023098;28;20050;-36
2023/03/02 02:19:37;;;;;;;16.48;9.18;;;;;;;15.71;47.93;102665.88;5025028;28;20471;-36
2023/03/02 02:22:03;;;;;;;14.40;9.50;;;;;;;15.72;47.65;102670.28;5028776;28;20052;-36
2023/03/02 02:24:42;;;;;;;14.35;9.27;;;;;;;15.70;47.43;102664.16;5026880;28;20069;-35
2023/03/02 02:27:10;;;;;;;14.20;8.98;;;;;;;15.70;47.03;102656.13;5022176;28;20054;-35
2023/03/02 02:29:44;;;;;;;14.30;8.88;;;;;;;15.69;47.69;102653.56;5028267;28;20041;-35
2023/03/02 02:32:15;;;;;;;15.73;9.73;;;;;;;15.68;46.99;102647.38;5027210;28;20041;-35
2023/03/02 02:35:18;;;;;;;14.90;9.45;;;;;;;15.66;47.10;102646.59;5024105;28;20053;-35
2023/03/02 02:37:50;;;;;;;13.88;9.27;;;;;;;15.67;47.25;102650.13;5022963;28;20058;-35
2023/03/02 02:40:44;;;;;;;15.30;9.85;;;;;;;15.63;47.34;102649.41;5025797;28;20346;-35
2023/03/02 02:43:12;;;;;;;12.70;8.93;;;;;;;15.64;47.86;102650.25;5020815;28;20037;-35
2023/03/02 02:45:39;;;;;;;14.25;8.63;;;;;;;15.65;47.70;102646.69;5025240;28;20050;-35
2023/03/02 02:48:14;;;;;;;14.02;9.15;;;;;;;15.62;47.96;102647.69;5022726;28;20059;-35
2023/03/02 02:50:43;;;;;;;11.38;8.15;;;;;;;15.62;46.96;102642.34;5021582;28;20349;-35
2023/03/02 02:53:17;;;;;;;14.18;9.60;;;;;;;15.60;47.27;102632.69;5027074;28;20439;-35
2023/03/02 02:55:47;;;;;;;13.60;9.30;;;;;;;15.60;47.13;102638.94;5024006;28;20049;-35
2023/03/02 02:58:46;;;;;;;12.50;8.38;;;;;;;15.58;48.09;102631.94;5024312;28;20103;-36
2023/03/02 03:01:19;;;;;;;14.15;8.60;;;;;;;15.59;48.07;102628.31;5020494;28;20064;-35
2023/03/02 03:03:55;;;;;;;13.90;8.55;;;;;;;15.57;48.04;102623.06;5023613;28;20049;-36
2023/03/02 03:06:29;;;;;;;10.93;7.75;;;;;;;15.57;47.31;102616.88;5020177;28;20154;-35
2023/03/02 03:08:59;;;;;;;16.40;9.25;;;;;;;15.55;47.19;102620.47;5021850;28;20052;-35
2023/03/02 03:11:28;;;;;;;14.95;9.55;;;;;;;15.54;47.93;102621.44;5026960;28;20108;-35
2023/03/02 03:14:08;;;;;;;13.05;8.43;;;;;;;15.53;47.46;102611.72;5020680;28;20521;-36
2023/03/02 03:16:37;;;;;;;13.20;8.55;;;;;;;15.54;48.05;102624.09;5021518;28;20053;-35
2023/03/02 03:19:23;;;;;;;14.82;8.50;;;;;;;15.51;47.79;102613.59;5022587;28;20049;-36
2023/03/02 03:21:52;;;;;;;12.88;8.50;;;;;;;15.53;47.28;102613.53;5022637;28;20391;-35
2023/03/02 03:24:20;;;;;;;11.75;7.68;;;;;;;15.52;47.19;102617.16;5022353;28;20056;-35
2023/03/02 03:26:47;;;;;;;12.63;8.95;;;;;;;15.51;47.84;102623.44;5025346;28;20041;-35
2023/03/02 03:29:16;;;;;;;12.23;8.52;;;;;;;15.51;48.12;102623.44;5021390;28;20066;-35
2023/03/02 03:31:43;;;;;;;13.32;8.95;;;;;;;15.50;47.25;102616.38;5023979;28;20057;-35
2023/03/02 03:34:11;;;;;;;12.63;8.75;;;;;;;15.50;47.39;102616.38;5025169;28;20341;-35
2023/03/02 03:36:37;;;;;;;13.40;9.02;;;;;;;15.49;48.13;102620.00;5024329;28;20330;-35
2023/03/02 03:39:05;;;;;;;13.57;8.90;;;;;;;15.48;48.18;102629.84;5017030;28;20057;-35
2023/03/02 03:41:32;;;;;;;12.55;8.88;;;;;;;15.46;47.77;102621.03;5025966;28;20083;-35
2023/03/02 03:43:58;;;;;;;12.07;7.85;;;;;;;15.46;47.50;102630.88;5019225;28;20157;-35
2023/03/02 03:46:25;;;;;;;13.10;8.20;;;;;;;15.46;48.11;102633.53;5019809;28;20057;-36
2023/03/02 03:48:52;;;;;;;12.02;7.53;;;;;;;15.45;47.41;102626.50;5019579;28;20049;-37
2023/03/02 03:51:18;;;;;;;11.43;7.85;;;;;;;15.43;47.78;102631.91;5019119;28;20061;-35
2023/03/02 03:53:45;;;;;;;12.82;8.15;;;;;;;15.43;47.44;102637.25;5013009;28;20145;-35
2023/03/02 03:56:11;;;;;;;12.43;7.93;;;;;;;15.42;48.01;102624.00;5022732;28;20053;-35
2023/03/02 03:58:38;;;;;;;11.95;7.75;;;;;;;15.42;47.94;102638.22;5021201;28;20064;-35
2023/03/02 04:01:05;;;;;;;11.63;7.82;;;;;;;15.41;47.78;102632.97;5024875;28;20042;-35
2023/03/02 04:03:32;;;;;;;11.00;7.40;;;;;;;15.40;48.01;102633.94;5024405;28;20380;-35
2023/03/02 04:05:59;;;;;;;11.10;8.07;;;;;;;15.39;48.46;102632.19;5024673;28;20455;-35
2023/03/02 04:08:25;;;;;;;12.48;8.40;;;;;;;15.38;47.87;102628.66;5020729;28;20531;-36
2023/03/02 04:10:52;;;;;;;12.60;8.20;;;;;;;15.38;48.25;102634.00;5022259;28;20053;-35
2023/03/02 04:13:18;;;;;;;11.15;7.60;;;;;;;15.36;47.50;102627.91;5022428;28;20433;-35
2023/03/02 04:15:45;;;;;;;12.95;8.52;;;;;;;15.36;48.24;102627.06;5024949;28;20046;-35
2023/03/02 04:18:12;;;;;;;11.98;7.78;;;;;;;15.36;48.48;102627.06;5019799;28;20057;-35
2023/03/02 04:20:39;;;;;;;11.13;7.68;;;;;;;15.35;48.29;102622.66;5022473;28;20057;-35
2023/03/02 04:23:05;;;;;;;11.40;7.82;;;;;;;15.35;48.35;102617.28;5023235;28;20504;-35
2023/03/02 04:25:32;;;;;;;13.15;8.10;;;;;;;15.33;47.49;102619.22;5017315;28;20057;-36
2023/03/02 04:27:59;;;;;;;12.20;8.20;;;;;;;15.30;48.36;102621.09;5020098;28;20050;-35
2023/03/02 04:30:26;;;;;;;11.55;7.72;;;;;;;15.30;47.58;102622.91;5019330;28;20050;-35
2023/03/02 04:32:53;;;;;;;11.55;7.38;;;;;;;15.30;48.06;102623.78;5020896;28;20046;-36
2023/03/02 04:35:19;;;;;;;11.63;7.90;;;;;;;15.28;48.24;102625.69;5022240;28;20433;-35
2023/03/02 04:37:46;;;;;;;11.45;8.02;;;;;;;15.29;48.41;102621.22;5024304;28;20046;-34
2023/03/02 04:40:14;;;;;;;10.98;7.93;;;;;;;15.29;48.22;102619.41;5022412;28;20145;-36
2023/03/02 04:42:43;;;;;;;18.00;9.10;;;;;;;15.28;48.37;102620.34;5019297;28;20121;-35
2023/03/02 04:45:11;;;;;;;12.60;8.05;;;;;;;15.28;48.58;102622.16;5026483;28;20053;-35
2023/03/02 04:47:38;;;;;;;11.98;7.75;;;;;;;15.27;47.85;102626.63;5025065;28;20060;-35
2023/03/02 04:50:05;;;;;;;9.80;6.75;;;;;;;15.26;47.36;102619.56;5017470;28;20325;-36
2023/03/02 04:52:31;;;;;;;9.60;6.72;;;;;;;15.27;47.34;102620.44;5023296;28;20076;-35
2023/03/02 04:54:58;;;;;;;10.38;7.25;;;;;;;15.26;47.71;102624.91;5017745;28;20052;-36
2023/03/02 04:57:24;;;;;;;11.68;7.60;;;;;;;15.24;47.53;102626.84;5018241;28;20465;-35
2023/03/02 04:59:51;;;;;;;12.52;7.40;;;;;;;15.25;48.55;102635.69;5020666;28;20049;-35
2023/03/02 05:02:18;;;;;;;13.05;6.82;;;;;;;15.25;47.80;102633.03;5020627;28;20080;-36
2023/03/02 05:04:44;;;;;;;10.30;7.32;;;;;;;15.23;48.70;102635.78;5021048;28;20050;-35
2023/03/02 05:07:11;;;;;;;13.60;7.97;;;;;;;15.23;48.39;102629.56;5022677;28;20056;-35
2023/03/02 05:09:37;;;;;;;10.82;7.00;;;;;;;15.22;47.76;102623.38;5015445;28;20053;-34
2023/03/02 05:12:04;;;;;;;13.32;8.07;;;;;;;15.22;47.61;102625.19;5019542;28;20057;-37
2023/03/02 05:14:31;;;;;;;15.25;9.55;;;;;;;15.20;48.31;102621.78;5019505;28;20445;-35
2023/03/02 05:16:58;;;;;;;18.27;9.77;;;;;;;15.19;48.09;102618.22;5024892;28;20054;-35
2023/03/02 05:19:24;;;;;;;21.67;12.05;;;;;;;15.18;47.62;102616.50;5017629;28;20053;-35
2023/03/02 05:21:51;;;;;;;24.20;13.93;;;;;;;15.16;48.30;102613.06;5022271;28;20046;-36
2023/03/02 05:24:18;;;;;;;23.15;13.35;;;;;;;15.16;48.03;102615.75;5020297;28;20052;-35
2023/03/02 05:26:44;;;;;;;26.02;14.38;;;;;;;15.16;47.50;102615.75;5029874;28;20049;-36
2023/03/02 05:29:11;;;;;;;33.05;15.48;;;;;;;15.14;48.38;102614.09;5023339;28;20056;-35
2023/03/02 05:31:41;;;;;;;28.67;16.13;;;;;;;15.13;47.69;102615.94;5021365;28;20140;-35
2023/03/02 05:34:09;;;;;;;30.67;17.48;;;;;;;15.12;47.96;102610.69;5019551;28;20402;-35
2023/03/02 05:36:37;;;;;;;29.58;16.27;;;;;;;15.12;48.25;102611.53;5024172;28;20056;-35
2023/03/02 05:39:05;;;;;;;29.73;16.60;;;;;;;15.11;48.51;102614.28;5024404;28;20095;-35
2023/03/02 05:41:32;;;;;;;29.20;17.45;;;;;;;15.11;48.05;102608.94;5020564;28;20556;-35
2023/03/02 05:43:59;;;;;;;32.75;18.38;;;;;;;15.10;47.49;102613.44;5020042;28;20059;-36
2023/03/02 05:46:25;;;;;;;33.10;17.88;;;;;;;15.09;47.67;102610.88;5026024;28;20053;-36
2023/03/02 05:48:52;;;;;;;32.83;18.73;;;;;;;15.08;47.64;102612.69;5025758;28;20049;-34
2023/03/02 05:51:19;;;;;;;30.15;17.58;;;;;;;15.07;48.19;102610.94;5022915;28;20248;-34
2023/03/02 05:53:45;;;;;;;30.30;17.48;;;;;;;15.06;47.63;102611.88;5023034;28;20046;-34
2023/03/02 05:56:12;;;;;;;31.08;17.70;;;;;;;15.05;48.26;102604.84;5025159;28;20054;-34
2023/03/02 05:58:38;;;;;;;33.00;18.50;;;;;;;15.04;47.56;102619.16;5024919;28;20397;-35
2023/03/02 06:01:10;;;;;;;31.23;18.52;;;;;;;15.02;48.27;102621.03;5021464;28;20053;-36
2023/03/02 06:03:40;;;;;;;33.25;17.98;;;;;;;15.03;48.47;102622.75;5024249;28;20077;-34
2023/03/02 06:06:06;;;;;;;33.40;18.98;;;;;;;15.02;47.99;102632.56;5027592;28;20045;-35
2023/03/02 06:08:33;;;;;;;32.28;17.55;;;;;;;15.02;48.11;102623.69;5024784;28;20084;-34
2023/03/02 06:10:59;;;;;;;32.58;18.15;;;;;;;15.00;47.76;102629.16;5025118;28;20049;-36
2023/03/02 06:13:26;;;;;;;29.63;17.48;;;;;;;15.00;48.16;102626.47;5025228;28;20045;-35
2023/03/02 06:15:53;;;;;;;31.35;18.17;;;;;;;15.01;48.17;102638.00;5026595;28;20345;-34
2023/03/02 06:18:19;;;;;;;29.90;17.50;;;;;;;14.98;47.42;102636.38;5025509;28;20046;-34
2023/03/02 06:20:46;;;;;;;30.83;18.05;;;;;;;14.98;48.45;102632.84;5024349;28;20354;-34
2023/03/02 06:23:12;;;;;;;30.10;18.02;;;;;;;14.98;48.06;102639.03;5025875;28;20050;-35
2023/03/02 06:25:42;;;;;;;30.02;17.35;;;;;;;14.98;47.61;102638.19;5026119;28;20380;-35
2023/03/02 06:28:09;;;;;;;29.02;16.92;;;;;;;14.99;47.54;102645.25;5023105;28;20598;-35
2023/03/02 06:30:35;;;;;;;30.95;16.98;;;;;;;14.98;48.45;102644.38;5023910;28;20041;-34
2023/03/02 06:33:02;;;;;;;27.05;16.73;;;;;;;14.99;47.57;102642.56;5026074;28;20452;-35
2023/03/02 06:35:28;;;;;;;27.35;16.42;;;;;;;14.99;48.04;102647.91;5023186;28;20433;-35
2023/03/02 06:37:55;;;;;;;33.80;16.48;;;;;;;14.98;47.51;102644.38;5022916;28;20049;-35
2023/03/02 06:40:22;;;;;;;26.77;15.57;;;;;;;14.97;47.64;102653.34;5021102;28;20045;-36
2023/03/02 06:42:48;;;;;;;24.73;15.85;;;;;;;14.98;48.02;102648.88;5022605;28;20055;-35
2023/03/02 06:45:15;;;;;;;26.80;15.80;;;;;;;14.96;47.64;102651.63;5021891;28;20053;-36
2023/03/02 06:47:42;;;;;;;27.77;16.70;;;;;;;14.96;47.65;102664.13;5026194;28;20124;-35
2023/03/02 06:50:09;;;;;;;25.25;14.93;;;;;;;14.96;48.07;102656.13;5027128;28;20045;-35
2023/03/02 06:52:36;;;;;;;26.67;16.55;;;;;;;14.95;47.65;102663.25;5025779;28;20064;-36
2023/03/02 06:55:03;;;;;;;26.60;15.23;;;;;;;14.94;48.24;102661.53;5024273;28;20433;-35
2023/03/02 06:57:32;;;;;;;22.45;13.95;;;;;;;14.94;47.69;102668.69;5021390;28;20545;-35
2023/03/02 07:00:08;;;;;;;27.17;15.40;;;;;;;14.94;48.27;102668.69;5022369;28;20045;-34
2023/03/02 07:02:35;;;;;;;22.95;13.75;;;;;;;14.93;48.43;102662.50;5023258;28;20432;-35
2023/03/02 07:05:02;;;;;;;25.73;14.63;;;;;;;14.93;48.27;102661.63;5024142;28;20132;-35
2023/03/02 07:07:28;;;;;;;20.60;12.88;;;;;;;14.93;47.49;102667.81;5022719;28;20045;-36
2023/03/02 07:09:55;;;;;;;22.33;14.80;;;;;;;14.92;47.72;102666.13;5017066;28;20325;-36
2023/03/02 07:12:22;;;;;;;22.42;13.63;;;;;;;14.91;47.97;102661.69;5023052;28;20053;-37
2023/03/02 07:14:48;;;;;;;21.88;13.63;;;;;;;14.91;47.71;102660.84;5020476;28;20064;-36
2023/03/02 07:17:15;;;;;;;20.15;13.00;;;;;;;14.90;48.60;102657.31;5023890;28;20062;-36
2023/03/02 07:19:41;;;;;;;20.23;12.35;;;;;;;14.91;48.02;102660.84;5027657;28;20095;-36
2023/03/02 07:22:08;;;;;;;23.02;13.10;;;;;;;14.90;47.63;102649.31;5022311;28;20053;-35
2023/03/02 07:24:34;;;;;;;19.80;13.32;;;;;;;14.90;48.55;102659.13;5018624;28;20338;-35
2023/03/02 07:27:01;;;;;;;20.40;12.35;;;;;;;14.90;47.69;102657.31;5025135;28;20041;-35
2023/03/02 07:29:28;;;;;;;22.10;13.20;;;;;;;14.90;47.86;102646.63;5019435;28;20053;-35
2023/03/02 07:31:58;;;;;;;20.00;12.30;;;;;;;14.90;48.38;102648.44;5021405;28;20045;-35
2023/03/02 07:34:25;;;;;;;21.35;12.07;;;;;;;14.91;48.11;102658.19;5024781;28;20037;-37
2023/03/02 07:36:52;;;;;;;19.25;12.07;;;;;;;14.89;47.79;102660.94;5025274;28;20046;-34
2023/03/02 07:39:19;;;;;;;18.05;11.82;;;;;;;14.90;48.65;102654.66;5022264;28;20069;-35
2023/03/02 07:41:45;;;;;;;18.50;11.73;;;;;;;14.89;48.14;102649.41;5021532;28;20084;-35
2023/03/02 07:44:12;;;;;;;21.08;11.15;;;;;;;14.90;47.81;102656.47;5020172;28;20365;-35
2023/03/02 07:46:38;;;;;;;19.45;11.32;;;;;;;14.90;48.22;102651.97;5020526;28;20072;-38
2023/03/02 07:49:05;;;;;;;20.60;11.35;;;;;;;14.90;48.68;102657.31;5024849;28;20053;-35
2023/03/02 07:51:32;;;;;;;19.33;11.18;;;;;;;14.92;48.64;102659.91;5020702;28;20053;-35
2023/03/02 07:54:01;;;;;;;18.85;12.02;;;;;;;14.91;47.89;102653.69;5020651;28;20042;-35
2023/03/02 07:56:28;;;;;;;20.13;11.35;;;;;;;14.92;48.51;102654.56;5022434;28;20083;-35
2023/03/02 07:58:55;;;;;;;17.17;10.38;;;;;;;14.93;48.19;102653.63;5026397;28;20056;-35
2023/03/02 08:01:21;;;;;;;15.23;10.02;;;;;;;14.93;48.63;102648.28;5021515;28;20508;-35
2023/03/02 08:03:48;;;;;;;18.55;11.18;;;;;;;14.94;48.79;102650.00;5021021;28;20152;-35
2023/03/02 08:06:14;;;;;;;18.63;11.13;;;;;;;14.95;48.57;102649.03;5019173;28;20065;-35
2023/03/02 08:08:41;;;;;;;15.93;10.60;;;;;;;14.96;48.64;102648.13;5019310;28;20046;-35
2023/03/02 08:11:11;;;;;;;14.55;9.52;;;;;;;14.98;48.45;102648.88;5020900;28;20050;-35
2023/03/02 08:13:38;;;;;;;14.57;9.43;;;;;;;15.00;48.81;102650.50;5020247;28;20060;-36
2023/03/02 08:16:06;;;;;;;19.52;10.07;;;;;;;15.02;48.72;102651.25;5021264;28;20089;-35
2023/03/02 08:18:34;;;;;;;16.45;10.50;;;;;;;15.04;48.75;102651.19;5018340;28;20373;-35
2023/03/02 08:21:01;;;;;;;15.32;10.15;;;;;;;15.07;48.48;102642.97;5020119;28;20344;-36
2023/03/02 08:23:27;;;;;;;18.48;10.73;;;;;;;15.11;48.58;102646.34;5020297;28;20377;-35
2023/03/02 08:25:55;;;;;;;15.43;9.65;;;;;;;15.12;48.48;102646.25;5018849;28;20068;-35
2023/03/02 08:28:22;;;;;;;16.80;9.57;;;;;;;15.16;49.08;102650.47;5018328;28;20506;-35
2023/03/02 08:30:59;;;;;;;15.82;9.15;;;;;;;15.19;48.84;102649.41;5023096;28;20128;-35
2023/03/02 08:33:27;;;;;;;16.65;9.52;;;;;;;15.25;48.04;102649.91;5021503;28;20053;-35
2023/03/02 08:36:05;;;;;;;15.77;10.18;;;;;;;15.27;48.31;102649.81;5017804;28;20319;-35
2023/03/02 08:38:32;;;;;;;17.20;9.90;;;;;;;15.31;48.61;102646.88;5021890;28;20055;-37
2023/03/02 08:41:03;;;;;;;14.13;9.50;;;;;;;15.36;48.33;102656.44;5020605;28;20133;-36
2023/03/02 08:43:30;;;;;;;15.52;9.43;;;;;;;15.39;47.85;102649.06;5022208;28;20049;-36
2023/03/02 08:45:56;;;;;;;15.13;9.52;;;;;;;15.44;48.47;102651.50;5021305;28;20429;-37
2023/03/02 08:48:25;;;;;;;14.52;8.80;;;;;;;15.47;47.44;102645.94;5022812;28;20041;-36
2023/03/02 08:51:01;;;;;;;13.90;9.05;;;;;;;15.51;48.56;102651.00;5021727;28;20128;-35
2023/03/02 08:53:31;;;;;;;14.65;9.55;;;;;;;15.54;48.34;102639.28;5021146;28;20106;-36
2023/03/02 08:55:57;;;;;;;12.82;8.68;;;;;;;15.59;47.44;102642.53;5016472;28;20145;-35
2023/03/02 08:58:24;;;;;;;13.30;8.02;;;;;;;15.63;46.96;102637.84;5019629;28;20092;-35
2023/03/02 09:00:51;;;;;;;12.73;8.90;;;;;;;15.66;48.15;102646.59;5024656;28;20073;-36
2023/03/02 09:03:18;;;;;;;11.43;7.65;;;;;;;15.70;48.24;102653.47;5025656;28;20056;-35
2023/03/02 09:05:44;;;;;;;16.90;8.38;;;;;;;15.75;47.76;102645.16;5024878;28;20053;-35
2023/03/02 09:08:11;;;;;;;15.35;7.90;;;;;;;15.79;46.91;102650.22;5018520;28;20052;-36
2023/03/02 09:10:38;;;;;;;12.40;7.10;;;;;;;15.85;47.27;102645.47;5022671;28;20144;-35
2023/03/02 09:13:05;;;;;;;15.15;7.72;;;;;;;15.91;47.33;102645.06;5018986;28;20419;-37
2023/03/02 09:15:34;;;;;;;17.27;7.72;;;;;;;15.95;47.19;102638.56;5020927;28;20056;-36
2023/03/02 09:18:01;;;;;;;13.32;7.43;;;;;;;16.01;47.09;102656.91;5022851;28;20053;-35
2023/03/02 09:20:27;;;;;;;14.63;7.93;;;;;;;16.06;47.06;102656.63;5022261;28;20068;-35
2023/03/02 09:22:54;;;;;;;13.77;7.47;;;;;;;16.11;46.69;102652.69;5025543;28;20073;-35
2023/03/02 09:25:20;;;;;;;13.77;7.63;;;;;;;16.16;47.07;102647.06;5023000;28;20054;-35
2023/03/02 09:27:47;;;;;;;11.88;7.20;;;;;;;16.21;47.04;102655.66;5027604;28;20356;-36
2023/03/02 09:30:14;;;;;;;13.57;7.10;;;;;;;16.26;46.40;102657.06;5027790;28;20136;-36
2023/03/02 09:32:41;;;;;;;14.25;7.18;;;;;;;16.33;46.15;102646.00;5023317;28;20045;-36
2023/03/02 09:35:08;;;;;;;13.35;7.60;;;;;;;16.38;46.31;102659.94;5026269;28;20041;-35
2023/03/02 09:37:37;;;;;;;12.95;7.35;;;;;;;16.44;46.54;102663.09;5024193;28;20049;-34
2023/03/02 09:40:14;;;;;;;15.18;7.65;;;;;;;16.50;45.89;102654.66;5030068;28;20063;-35
2023/03/02 09:43:19;;;;;;;10.98;6.65;;;;;;;16.57;46.22;102655.13;5028874;28;20346;-35
2023/03/02 09:46:02;;;;;;;9.65;5.72;;;;;;;16.65;46.43;102655.47;5019616;28;20197;-35
2023/03/02 09:48:55;;;;;;;14.95;6.72;;;;;;;16.72;45.54;102650.56;5025829;28;20497;-34
2023/03/02 09:51:31;;;;;;;15.30;6.32;;;;;;;16.80;45.66;102660.81;5022430;28;20140;-35
2023/03/02 09:54:07;;;;;;;12.57;6.57;;;;;;;16.85;45.93;102648.00;5024048;28;20484;-36
2023/03/02 09:56:54;;;;;;;10.32;6.07;;;;;;;16.92;45.95;102657.31;5022500;28;20049;-36
2023/03/02 09:59:28;;;;;;;12.27;6.45;;;;;;;16.99;45.51;102651.44;5022160;28;20153;-36
2023/03/02 10:02:19;;;;;;;10.32;6.07;;;;;;;17.06;45.96;102651.91;5022030;28;20057;-35
2023/03/02 10:04:50;;;;;;;8.30;5.40;;;;;;;17.13;45.64;102645.19;5024575;28;20088;-35
2023/03/02 10:07:25;;;;;;;10.68;5.90;;;;;;;17.19;45.92;102642.06;5022018;28;20054;-35
2023/03/02 10:09:52;;;;;;;9.07;5.72;;;;;;;17.26;46.03;102643.38;5023379;28;20060;-36
2023/03/02 10:12:48;;;;;;;11.10;5.97;;;;;;;17.33;45.91;102629.56;5025142;28;20057;-35
2023/03/02 10:15:35;;;;;;;11.10;5.88;;;;;;;17.40;45.54;102630.84;5014136;28;20475;-35
2023/03/02 10:18:27;;;;;;;9.13;5.47;;;;;;;17.46;45.42;102636.63;5020842;28;20057;-35
2023/03/02 10:21:02;;;;;;;9.02;5.53;;;;;;;17.52;45.28;102629.97;5024161;28;20095;-35
2023/03/02 10:23:37;;;;;;;11.52;5.57;;;;;;;17.58;45.29;102640.28;5026067;28;20049;-34
2023/03/02 10:26:25;;;;;;;8.70;5.57;;;;;;;17.63;44.93;102639.97;5028153;28;20081;-36
2023/03/02 10:29:20;;;;;;;10.70;5.80;;;;;;;17.69;45.13;102631.50;5023633;28;20052;-35
2023/03/02 10:31:48;;;;;;;;;;;;;;;17.73;45.19;102633.88;5021940;28;20349;-35
2023/03/02 10:34:15;;;;;;;9.20;5.53;;;;;;;17.81;44.70;102635.16;5023940;28;20177;-35
2023/03/02 10:36:43;;;;;;;9.77;5.60;;;;;;;17.83;44.82;102626.03;5020472;28;20100;-35
2023/03/02 10:39:15;;;;;;;12.23;6.60;;;;;;;17.88;44.58;102623.88;5021340;28;20057;-34
2023/03/02 10:42:05;;;;;;;8.75;5.40;;;;;;;17.90;44.89;102616.59;5022761;28;20145;-35
2023/03/02 10:44:39;;;;;;;8.25;5.13;;;;;;;17.95;44.69;102625.16;5022778;28;20132;-35
2023/03/02 10:47:07;;;;;;;9.90;5.30;;;;;;;17.99;44.33;102612.41;5024521;28;20081;-35
2023/03/02 10:49:38;;;;;;;9.70;5.30;;;;;;;18.02;44.46;102612.19;5022540;28;20068;-35
2023/03/02 10:52:13;;;;;;;8.30;5.20;;;;;;;18.06;44.67;102616.38;5018913;28;20139;-35
2023/03/02 10:54:40;;;;;;;;;;;;;;;18.09;44.52;102607.22;5020315;28;20077;-34
2023/03/02 10:57:31;;;;;;;7.55;4.53;;;;;;;18.13;44.29;102604.22;5025236;28;19956;-35
2023/03/02 11:00:02;;;;;;;11.65;5.85;;;;;;;18.17;44.31;102616.44;5016496;28;20045;-35
2023/03/02 11:02:32;;;;;;;10.25;5.35;;;;;;;18.18;44.49;102610.09;5027107;28;20577;-36
2023/03/02 11:05:18;;;;;;;7.82;5.10;;;;;;;18.19;43.99;102603.75;5024974;28;20102;-36
2023/03/02 11:08:11;;;;;;;8.07;4.93;;;;;;;18.22;44.25;102606.22;5025190;28;20053;-35
2023/03/02 11:10:49;;;;;;;8.73;5.30;;;;;;;18.25;44.15;102597.97;5010337;28;20045;-35
2023/03/02 11:13:19;;;;;;;7.03;4.40;;;;;;;18.28;44.24;102601.38;5022038;28;20053;-36
2023/03/02 11:15:48;;;;;;;7.95;4.93;;;;;;;18.27;44.25;102600.53;5022091;28;20037;-36
2023/03/02 11:18:29;;;;;;;7.80;5.10;;;;;;;18.28;43.69;102587.94;5024145;28;20115;-35
2023/03/02 11:21:04;;;;;;;8.77;5.18;;;;;;;18.29;44.12;102590.53;5022621;28;20168;-36
2023/03/02 11:23:40;;;;;;;8.45;5.43;;;;;;;18.29;43.94;102595.91;5022250;28;20061;-37
2023/03/02 11:26:29;;;;;;;8.70;5.45;;;;;;;18.31;44.03;102590.41;5020314;28;20049;-35